createdAt,value
2018-11-05T00:01:20.434Z,47.50
2018-11-05T00:03:48.620Z,48.57
2018-11-05T00:06:16.801Z,50.07
2018-11-05T00:08:44.982Z,45.20
2018-11-05T00:11:13.165Z,50.03
2018-11-05T00:13:41.353Z,45.40
2018-11-05T00:16:09.538Z,48.57
2018-11-05T00:18:37.710Z,45.00
2018-11-05T00:21:05.957Z,43.73
2018-11-05T00:23:34.160Z,41.90
2018-11-05T00:26:02.348Z,43.30
2018-11-05T00:28:30.565Z,44.63
2018-11-05T00:30:58.745Z,41.73
2018-11-05T00:33:26.957Z,41.13
2018-11-05T00:35:55.125Z,43.00
2018-11-05T00:38:23.314Z,44.00
2018-11-05T00:40:51.494Z,41.80
2018-11-05T00:43:19.697Z,43.80
2018-11-05T00:45:47.956Z,44.20
2018-11-05T00:48:16.055Z,44.80
2018-11-05T00:50:44.222Z,44.37
2018-11-05T00:53:12.421Z,43.57
2018-11-05T00:55:40.612Z,43.07
2018-11-05T00:58:08.809Z,47.70
2018-11-05T01:00:37.251Z,45.30
2018-11-05T01:03:05.522Z,48.30
2018-11-05T01:05:33.717Z,44.63
2018-11-05T01:08:01.906Z,42.97
2018-11-05T01:10:30.087Z,41.90
2018-11-05T01:12:58.334Z,47.80
2018-11-05T01:15:26.497Z,44.97
2018-11-05T01:17:54.678Z,44.60
2018-11-05T01:20:22.891Z,42.17
2018-11-05T01:22:51.082Z,45.13
2018-11-05T01:25:19.272Z,47.20
2018-11-05T01:27:47.462Z,49.53
2018-11-05T01:30:15.650Z,41.00
2018-11-05T01:32:43.838Z,45.53
2018-11-05T01:35:13.090Z,42.40
2018-11-05T01:37:41.290Z,43.47
2018-11-05T01:40:11.902Z,42.03
2018-11-05T01:42:40.100Z,40.97
2018-11-05T01:45:09.572Z,48.70
2018-11-05T01:47:37.789Z,41.43
2018-11-05T01:50:07.227Z,39.87
2018-11-05T01:52:35.441Z,45.00
2018-11-05T01:55:03.665Z,46.10
2018-11-05T01:57:31.877Z,40.83
2018-11-05T02:00:00.082Z,42.57
2018-11-05T02:02:28.273Z,42.57
2018-11-05T02:04:56.465Z,42.80
2018-11-05T02:07:25.210Z,43.23
2018-11-05T02:09:53.442Z,44.17
2018-11-05T02:12:21.638Z,42.50
2018-11-05T02:14:49.830Z,46.53
2018-11-05T02:17:18.021Z,38.57
2018-11-05T02:19:46.200Z,45.83
2018-11-05T02:22:14.421Z,42.57
2018-11-05T02:24:42.973Z,44.50
2018-11-05T02:27:11.301Z,50.07
2018-11-05T02:29:39.378Z,43.77
2018-11-05T02:32:07.576Z,50.67
2018-11-05T02:34:35.766Z,52.20
2018-11-05T02:37:04.056Z,50.10
2018-11-05T02:39:32.258Z,48.60
2018-11-05T02:42:00.456Z,49.13
2018-11-05T02:44:28.649Z,57.70
2018-11-05T02:46:56.845Z,50.40
2018-11-05T02:49:25.056Z,53.90
2018-11-05T02:51:53.258Z,51.30
2018-11-05T02:54:21.446Z,52.37
2018-11-05T02:56:49.633Z,48.07
2018-11-05T02:59:17.879Z,54.20
2018-11-05T03:01:46.162Z,56.37
2018-11-05T03:04:14.370Z,53.03
2018-11-05T03:06:42.553Z,64.37
2018-11-05T03:09:12.128Z,57.63
2018-11-05T03:11:40.653Z,57.20
2018-11-05T03:14:09.091Z,55.63
2018-11-05T03:16:37.862Z,59.33
2018-11-05T03:19:06.257Z,54.70
2018-11-05T03:21:34.443Z,55.57
2018-11-05T03:24:02.693Z,55.80
2018-11-05T03:26:31.178Z,55.47
2018-11-05T03:28:59.506Z,59.37
2018-11-05T03:31:27.689Z,56.20
2018-11-05T03:33:55.912Z,54.33
2018-11-05T03:36:24.209Z,52.53
2018-11-05T03:38:52.418Z,53.30
2018-11-05T03:41:20.643Z,53.43
2018-11-05T03:43:48.893Z,50.17
2018-11-05T03:46:17.090Z,53.00
2018-11-05T03:48:45.286Z,50.23
2018-11-05T03:51:13.477Z,52.13
2018-11-05T03:53:41.684Z,55.43
2018-11-05T03:56:09.908Z,48.67
2018-11-05T03:58:38.064Z,53.10
2018-11-05T04:01:06.273Z,52.60
2018-11-05T04:03:34.498Z,52.10
2018-11-05T04:06:02.665Z,51.53
2018-11-05T04:08:30.858Z,48.83
2018-11-05T04:10:59.037Z,47.17
2018-11-05T04:13:27.250Z,47.40
2018-11-05T04:15:55.492Z,46.13
2018-11-05T04:18:23.642Z,43.10
2018-11-05T04:20:51.825Z,40.43
2018-11-05T04:23:20.026Z,41.30
2018-11-05T04:25:48.213Z,47.40
2018-11-05T04:28:16.401Z,45.90
2018-11-05T04:30:44.589Z,54.23
2018-11-05T04:33:12.797Z,53.73
2018-11-05T04:35:40.977Z,46.33
2018-11-05T04:38:09.177Z,47.47
2018-11-05T04:40:37.382Z,49.30
2018-11-05T04:43:05.600Z,50.73
2018-11-05T04:45:33.796Z,46.97
2018-11-05T04:48:01.999Z,44.80
2018-11-05T04:50:30.196Z,40.57
2018-11-05T04:52:58.409Z,47.70
2018-11-05T04:55:26.615Z,51.93
2018-11-05T04:57:54.837Z,47.43
2018-11-05T05:00:23.038Z,51.47
2018-11-05T05:02:51.234Z,43.33
2018-11-05T05:05:19.430Z,36.73
2018-11-05T05:07:47.637Z,34.97
2018-11-05T05:10:15.838Z,43.37
2018-11-05T05:12:44.301Z,39.37
2018-11-05T05:15:12.802Z,41.27
2018-11-05T05:17:41.478Z,37.60
2018-11-05T05:20:12.026Z,38.50
2018-11-05T05:22:40.388Z,34.03
2018-11-05T05:25:08.473Z,37.20
2018-11-05T05:27:36.691Z,35.30
2018-11-05T05:30:07.873Z,37.83
2018-11-05T05:32:36.054Z,37.00
2018-11-05T05:35:04.264Z,36.70
2018-11-05T05:37:32.492Z,36.70
2018-11-05T05:40:00.716Z,50.17
2018-11-05T05:42:28.945Z,45.40
2018-11-05T05:44:57.161Z,40.60
2018-11-05T05:47:25.353Z,47.27
2018-11-05T05:49:53.607Z,48.73
2018-11-05T05:52:21.811Z,45.30
2018-11-05T05:54:50.005Z,45.80
2018-11-05T05:57:18.198Z,46.40
2018-11-05T05:59:46.484Z,49.00
2018-11-05T06:02:14.669Z,56.90
2018-11-05T06:04:42.865Z,50.80
2018-11-05T06:07:11.061Z,51.57
2018-11-05T06:09:39.266Z,53.30
2018-11-05T06:12:07.456Z,58.33
2018-11-05T06:14:35.666Z,49.20
2018-11-05T06:17:03.841Z,52.03
2018-11-05T06:19:32.045Z,55.33
2018-11-05T06:22:00.306Z,52.40
2018-11-05T06:24:28.439Z,56.23
2018-11-05T06:26:56.621Z,59.33
2018-11-05T06:29:24.817Z,53.73
2018-11-05T06:31:52.999Z,55.47
2018-11-05T06:34:21.207Z,56.30
2018-11-05T06:36:49.381Z,47.63
2018-11-05T06:39:17.607Z,47.17
2018-11-05T06:41:45.867Z,47.60
2018-11-05T06:44:14.062Z,47.00
2018-11-05T06:46:42.193Z,49.17
2018-11-05T06:49:10.392Z,48.20
2018-11-05T06:51:38.573Z,51.37
2018-11-05T06:54:06.786Z,48.40
2018-11-05T06:56:35.138Z,51.03
2018-11-05T06:59:03.338Z,45.57
2018-11-05T07:01:31.957Z,54.00
2018-11-05T07:04:00.170Z,52.00
2018-11-05T07:06:28.429Z,47.17
2018-11-05T07:08:56.694Z,45.97
2018-11-05T07:11:24.972Z,48.30
2018-11-05T07:13:53.086Z,47.27
2018-11-05T07:16:21.278Z,47.70
2018-11-05T07:18:49.672Z,52.23
2018-11-05T07:21:17.861Z,47.50
2018-11-05T07:23:46.085Z,47.40
2018-11-05T07:26:14.282Z,56.83
2018-11-05T07:28:42.473Z,45.27
2018-11-05T07:31:10.682Z,47.37
2018-11-05T07:33:38.932Z,43.97
2018-11-05T07:36:07.089Z,50.57
2018-11-05T07:38:35.286Z,46.50
2018-11-05T07:41:03.498Z,44.40
2018-11-05T07:43:31.697Z,45.80
2018-11-05T07:45:59.905Z,55.27
2018-11-05T07:48:28.089Z,45.37
2018-11-05T07:50:56.302Z,48.53
2018-11-05T07:53:24.505Z,50.00
2018-11-05T07:55:52.748Z,49.23
2018-11-05T07:58:20.950Z,50.97
2018-11-05T08:00:49.163Z,59.83
2018-11-05T08:03:17.346Z,54.40
2018-11-05T08:05:45.555Z,49.73
2018-11-05T08:08:15.787Z,54.87
2018-11-05T08:10:43.972Z,58.27
2018-11-05T08:13:12.171Z,46.63
2018-11-05T08:15:40.402Z,58.27
2018-11-05T08:18:08.557Z,49.53
2018-11-05T08:20:36.757Z,49.87
2018-11-05T08:23:04.975Z,57.03
2018-11-05T08:25:33.177Z,49.27
2018-11-05T08:28:01.369Z,58.17
2018-11-05T08:30:29.571Z,53.53
2018-11-05T08:32:57.780Z,50.23
2018-11-05T08:35:25.995Z,51.37
2018-11-05T08:37:54.546Z,56.67
2018-11-05T08:40:24.800Z,56.53
2018-11-05T08:42:53.760Z,51.77
2018-11-05T08:45:24.193Z,58.20
2018-11-05T08:47:52.405Z,55.93
2018-11-05T08:50:22.046Z,54.07
2018-11-05T08:52:50.111Z,59.80
2018-11-05T08:55:25.988Z,58.07
2018-11-05T08:57:54.191Z,55.47
2018-11-05T09:00:27.850Z,60.50
2018-11-05T09:02:56.169Z,55.03
2018-11-05T09:05:24.536Z,50.27
2018-11-05T09:07:53.526Z,52.83
2018-11-05T09:10:21.895Z,50.67
2018-11-05T09:12:49.941Z,47.70
2018-11-05T09:15:19.394Z,46.70
2018-11-05T09:17:47.979Z,45.70
2018-11-05T09:20:17.187Z,56.53
2018-11-05T09:22:46.462Z,45.97
2018-11-05T09:25:15.489Z,42.27
2018-11-05T09:27:43.734Z,44.87
2018-11-05T09:30:15.095Z,47.27
2018-11-05T09:32:44.120Z,43.73
2018-11-05T09:35:12.347Z,42.37
2018-11-05T09:37:40.551Z,38.27
2018-11-05T09:40:11.115Z,43.20
2018-11-05T09:42:39.942Z,47.83
2018-11-05T09:45:10.994Z,42.03
2018-11-05T09:47:39.202Z,46.27
2018-11-05T09:50:08.469Z,46.03
2018-11-05T09:52:36.786Z,46.63
2018-11-05T09:55:05.210Z,44.83
2018-11-05T09:57:33.425Z,53.87
2018-11-05T10:00:01.722Z,42.13
2018-11-05T10:02:35.226Z,41.20
2018-11-05T10:05:03.650Z,47.80
2018-11-05T10:07:31.682Z,48.70
2018-11-05T10:09:59.891Z,46.77
2018-11-05T10:12:28.113Z,45.10
2018-11-05T10:14:56.575Z,42.03
2018-11-05T10:17:24.828Z,42.60
2018-11-05T10:19:53.031Z,50.70
2018-11-05T10:22:21.231Z,50.37
2018-11-05T10:24:49.505Z,53.93
2018-11-05T10:27:17.653Z,52.83
2018-11-05T10:29:45.853Z,46.00
2018-11-05T10:32:14.067Z,51.03
2018-11-05T10:34:42.280Z,47.60
2018-11-05T10:37:10.489Z,47.40
2018-11-05T10:39:38.697Z,47.23
2018-11-05T10:42:06.913Z,49.23
2018-11-05T10:44:35.468Z,52.77
2018-11-05T10:47:03.682Z,50.73
2018-11-05T10:49:31.895Z,54.87
2018-11-05T10:52:00.224Z,62.43
2018-11-05T10:54:28.345Z,54.03
2018-11-05T10:56:56.615Z,51.43
2018-11-05T10:59:24.762Z,55.23
2018-11-05T11:01:58.448Z,56.50
2018-11-05T11:04:31.817Z,52.87
2018-11-05T11:07:00.222Z,52.27
2018-11-05T11:09:28.471Z,55.37
2018-11-05T11:11:57.173Z,59.13
2018-11-05T11:14:25.388Z,51.60
2018-11-05T11:16:53.637Z,43.70
2018-11-05T11:19:21.814Z,46.77
2018-11-05T11:21:50.080Z,46.93
2018-11-05T11:24:18.742Z,48.53
2018-11-05T11:26:46.996Z,46.33
2018-11-05T11:29:15.378Z,44.80
2018-11-05T11:31:43.489Z,48.03
2018-11-05T11:34:11.729Z,43.33
2018-11-05T11:36:40.059Z,49.53
2018-11-05T11:39:10.052Z,44.40
2018-11-05T11:41:38.266Z,65.40
2018-11-05T11:44:06.599Z,47.10
2018-11-05T11:46:35.182Z,55.60
2018-11-05T11:49:03.386Z,42.10
2018-11-05T11:51:31.609Z,57.20
2018-11-05T11:53:59.845Z,43.50
2018-11-05T11:56:28.310Z,49.67
2018-11-05T11:58:56.505Z,45.77
2018-11-05T12:01:24.719Z,49.47
2018-11-05T12:03:52.961Z,51.10
2018-11-05T12:06:21.166Z,50.53
2018-11-05T12:08:49.661Z,45.90
2018-11-05T12:11:17.891Z,43.60
2018-11-05T12:13:46.088Z,48.87
2018-11-05T12:16:14.391Z,47.20
2018-11-05T12:18:42.751Z,44.90
2018-11-05T12:21:10.992Z,49.17
2018-11-05T12:23:39.198Z,47.70
2018-11-05T12:26:07.399Z,53.80
2018-11-05T12:28:35.606Z,48.10
2018-11-05T12:31:03.815Z,46.83
2018-11-05T12:33:32.038Z,45.10
2018-11-05T12:36:00.240Z,45.10
2018-11-05T12:38:28.434Z,44.97
2018-11-05T12:40:56.637Z,46.80
2018-11-05T12:43:24.835Z,49.10
2018-11-05T12:45:53.045Z,43.50
2018-11-05T12:48:21.245Z,47.00
2018-11-05T12:50:49.538Z,45.50
2018-11-05T12:53:17.666Z,46.03
2018-11-05T12:55:45.942Z,49.83
2018-11-05T12:58:14.146Z,45.37
2018-11-05T13:00:42.357Z,42.27
2018-11-05T13:03:10.592Z,52.47
2018-11-05T13:05:38.789Z,39.27
2018-11-05T13:08:07.028Z,49.80
2018-11-05T13:10:35.234Z,47.27
2018-11-05T13:13:03.478Z,41.93
2018-11-05T13:15:31.654Z,39.53
2018-11-05T13:17:59.859Z,44.30
2018-11-05T13:20:28.077Z,45.33
2018-11-05T13:23:02.877Z,44.80
2018-11-05T13:25:31.118Z,41.70
2018-11-05T13:27:59.338Z,44.10
2018-11-05T13:30:27.525Z,40.07
2018-11-05T13:32:55.737Z,43.70
2018-11-05T13:35:23.936Z,43.07
2018-11-05T13:37:52.617Z,44.87
2018-11-05T13:40:21.656Z,40.80
2018-11-05T13:42:50.435Z,35.47
2018-11-05T13:45:19.119Z,38.20
2018-11-05T13:47:47.947Z,45.27
2018-11-05T13:50:16.250Z,38.50
2018-11-05T13:52:44.148Z,45.90
2018-11-05T13:55:13.559Z,40.47
2018-11-05T13:57:42.838Z,44.83
2018-11-05T14:00:13.181Z,39.03
2018-11-05T14:02:41.377Z,35.50
2018-11-05T14:05:10.238Z,44.53
2018-11-05T14:07:38.737Z,39.60
2018-11-05T14:10:09.245Z,37.90
2018-11-05T14:12:37.612Z,34.73
2018-11-05T14:15:06.158Z,39.77
2018-11-05T14:17:34.394Z,40.83
2018-11-05T14:20:02.610Z,37.53
2018-11-05T14:22:30.917Z,39.43
2018-11-05T14:24:59.115Z,35.43
2018-11-05T14:27:27.500Z,39.40
2018-11-05T14:29:55.900Z,40.00
2018-11-05T14:32:23.755Z,39.40
2018-11-05T14:34:52.018Z,38.17
2018-11-05T14:37:20.821Z,39.77
2018-11-05T14:39:49.010Z,41.00
2018-11-05T14:42:17.244Z,42.07
2018-11-05T14:44:45.453Z,47.97
2018-11-05T14:47:13.675Z,40.60
2018-11-05T14:49:42.073Z,36.63
2018-11-05T14:52:10.281Z,35.90
2018-11-05T14:54:38.599Z,35.90
2018-11-05T14:57:07.004Z,40.10
2018-11-05T14:59:35.230Z,37.00
2018-11-05T15:02:08.931Z,35.30
2018-11-05T15:04:37.181Z,36.63
2018-11-05T15:07:05.590Z,34.43
2018-11-05T15:09:33.799Z,46.20
2018-11-05T15:12:02.050Z,44.10
2018-11-05T15:14:30.452Z,43.37
2018-11-05T15:16:58.913Z,41.13
2018-11-05T15:19:27.890Z,38.47
2018-11-05T15:21:55.802Z,40.10
2018-11-05T15:24:24.034Z,40.67
2018-11-05T15:26:52.390Z,39.33
2018-11-05T15:29:20.441Z,57.13
2018-11-05T15:31:48.649Z,53.40
2018-11-05T15:34:16.863Z,58.77
2018-11-05T15:36:45.061Z,58.77
2018-11-05T15:39:13.266Z,61.57
2018-11-05T15:41:41.468Z,66.27
2018-11-05T15:44:09.682Z,64.73
2018-11-05T15:46:37.891Z,61.47
2018-11-05T15:49:06.110Z,44.33
2018-11-05T15:51:34.474Z,44.70
2018-11-05T15:54:02.570Z,45.63
2018-11-05T15:56:30.782Z,42.50
2018-11-05T15:58:59.022Z,39.80
2018-11-05T16:01:27.293Z,42.73
2018-11-05T16:03:55.510Z,43.20
2018-11-05T16:06:23.865Z,47.03
2018-11-05T16:08:52.134Z,45.77
2018-11-05T16:11:20.341Z,39.80
2018-11-05T16:13:48.542Z,46.37
2018-11-05T16:16:16.738Z,43.23
2018-11-05T16:18:44.977Z,47.20
2018-11-05T16:21:13.189Z,54.57
2018-11-05T16:23:41.536Z,53.40
2018-11-05T16:26:09.696Z,41.07
2018-11-05T16:28:37.899Z,48.10
2018-11-05T16:31:06.207Z,49.33
2018-11-05T16:33:34.504Z,43.13
2018-11-05T16:36:02.713Z,41.07
2018-11-05T16:38:31.009Z,42.50
2018-11-05T16:40:59.139Z,46.43
2018-11-05T16:43:27.374Z,37.90
2018-11-05T16:45:55.670Z,46.47
2018-11-05T16:48:23.843Z,46.53
2018-11-05T16:50:52.103Z,52.57
2018-11-05T16:53:20.387Z,47.80
2018-11-05T16:55:48.579Z,46.67
2018-11-05T16:58:16.850Z,50.10
2018-11-05T17:00:45.170Z,47.90
2018-11-05T17:03:13.341Z,49.60
2018-11-05T17:05:41.473Z,43.13
2018-11-05T17:08:09.665Z,45.90
2018-11-05T17:10:37.868Z,53.30
2018-11-05T17:13:06.389Z,52.57
2018-11-05T17:15:34.556Z,51.40
2018-11-05T17:18:02.754Z,47.97
2018-11-05T17:20:30.952Z,47.20
2018-11-05T17:22:59.129Z,48.10
2018-11-05T17:25:27.399Z,49.10
2018-11-05T17:27:55.623Z,53.97
2018-11-05T17:30:23.812Z,52.30
2018-11-05T17:32:52.142Z,53.03
2018-11-05T17:35:20.430Z,52.00
2018-11-05T17:37:48.906Z,48.67
2018-11-05T17:40:18.656Z,57.73
2018-11-05T17:42:46.768Z,57.30
2018-11-05T17:45:16.298Z,65.50
2018-11-05T17:47:44.761Z,72.30
2018-11-05T17:50:16.523Z,81.00
2018-11-05T17:52:45.007Z,63.93
2018-11-05T17:55:13.502Z,68.13
2018-11-05T17:57:42.765Z,58.73
2018-11-05T18:00:13.669Z,66.43
2018-11-05T18:02:41.870Z,54.30
2018-11-05T18:05:10.087Z,65.10
2018-11-05T18:07:38.273Z,57.10
2018-11-05T18:10:07.110Z,65.60
2018-11-05T18:12:35.309Z,53.63
2018-11-05T18:15:03.805Z,50.23
2018-11-05T18:17:31.993Z,53.50
2018-11-05T18:20:00.237Z,48.80
2018-11-05T18:22:28.434Z,55.10
2018-11-05T18:24:56.650Z,58.37
2018-11-05T18:27:24.849Z,46.23
2018-11-05T18:29:53.058Z,46.70
2018-11-05T18:32:22.045Z,44.93
2018-11-05T18:34:51.764Z,49.80
2018-11-05T18:37:20.278Z,43.90
2018-11-05T18:39:48.806Z,45.60
2018-11-05T18:42:17.189Z,43.97
2018-11-05T18:44:45.509Z,58.37
2018-11-05T18:47:13.735Z,47.80
2018-11-05T18:49:48.702Z,45.57
2018-11-05T18:52:16.889Z,59.00
2018-11-05T18:54:45.255Z,45.00
2018-11-05T18:57:13.675Z,48.73
2018-11-05T18:59:42.141Z,48.23
2018-11-05T19:02:13.442Z,45.33
2018-11-05T19:04:41.788Z,58.87
2018-11-05T19:07:10.189Z,53.20
2018-11-05T19:09:38.446Z,60.30
2018-11-05T19:12:06.654Z,61.23
2018-11-05T19:14:34.862Z,59.50
2018-11-05T19:17:03.053Z,50.57
2018-11-05T19:19:31.258Z,58.07
2018-11-05T19:21:59.490Z,55.77
2018-11-05T19:24:27.950Z,53.10
2018-11-05T19:26:55.914Z,54.20
2018-11-05T19:29:24.152Z,47.63
2018-11-05T19:31:52.374Z,58.90
2018-11-05T19:34:20.580Z,45.60
2018-11-05T19:36:48.846Z,39.40
2018-11-05T19:39:17.117Z,40.30
2018-11-05T19:41:45.460Z,33.43
2018-11-05T19:44:13.702Z,32.80
2018-11-05T19:46:41.923Z,33.37
2018-11-05T19:51:58.041Z,33.30
2018-11-05T19:54:26.246Z,36.30
2018-11-05T19:56:54.528Z,48.40
2018-11-05T19:59:22.762Z,37.70
2018-11-05T20:01:50.961Z,32.40
2018-11-05T20:04:19.168Z,34.10
2018-11-05T20:06:47.369Z,34.13
2018-11-05T20:09:15.575Z,32.93
2018-11-05T20:11:43.771Z,42.47
2018-11-05T20:14:11.966Z,37.20
2018-11-05T20:16:40.210Z,35.53
2018-11-05T20:19:08.401Z,37.17
2018-11-05T20:21:36.573Z,39.67
2018-11-05T20:24:04.821Z,34.47
2018-11-05T20:26:33.119Z,34.70
2018-11-05T20:29:01.479Z,36.53
2018-11-05T20:31:29.879Z,36.63
2018-11-05T20:33:58.074Z,40.70
2018-11-05T20:36:26.064Z,36.60
2018-11-05T20:38:54.263Z,59.77
2018-11-05T20:41:22.462Z,37.23
2018-11-05T20:43:50.650Z,34.13
2018-11-05T20:46:18.858Z,31.43
2018-11-05T20:48:47.047Z,27.20
2018-11-05T20:51:15.390Z,27.73
2018-11-05T20:53:43.640Z,27.80
2018-11-05T20:56:11.892Z,28.40
2018-11-05T20:58:40.090Z,28.43
2018-11-05T21:01:08.491Z,34.97
2018-11-05T21:10:00.079Z,30.40
2018-11-05T21:18:10.238Z,28.50
2018-11-05T21:20:38.444Z,31.77
2018-11-05T21:23:06.728Z,27.83
2018-11-05T21:25:34.873Z,26.70
2018-11-05T21:28:03.066Z,31.10
2018-11-05T21:30:31.352Z,25.60
2018-11-05T21:32:59.682Z,26.90
2018-11-05T21:35:27.777Z,31.63
2018-11-05T21:37:55.987Z,27.50
2018-11-05T21:40:24.201Z,32.23
2018-11-05T21:42:52.398Z,27.50
2018-11-05T21:45:20.616Z,31.63
2018-11-05T21:47:48.822Z,26.93
2018-11-05T21:50:18.305Z,28.33
2018-11-05T21:52:46.883Z,29.53
2018-11-05T21:55:15.095Z,31.23
2018-11-05T21:57:44.575Z,26.70
2018-11-05T22:00:14.501Z,28.90
2018-11-05T22:02:47.993Z,24.53
2018-11-05T22:05:16.469Z,26.67
2018-11-05T22:07:44.736Z,30.13
2018-11-05T22:10:13.490Z,30.30
2018-11-05T22:12:42.101Z,26.00
2018-11-05T22:15:10.313Z,32.77
2018-11-05T22:17:38.513Z,28.63
2018-11-05T22:20:07.796Z,29.03
2018-11-05T22:22:36.129Z,30.03
2018-11-05T22:25:04.345Z,27.37
2018-11-05T22:27:32.603Z,27.83
2018-11-05T22:30:01.482Z,29.33
2018-11-05T22:32:30.081Z,27.90
2018-11-05T22:34:59.157Z,28.70
2018-11-05T22:37:27.366Z,29.80
2018-11-05T22:39:55.564Z,25.00
2018-11-05T22:42:23.777Z,30.13
2018-11-05T22:44:51.972Z,24.70
2018-11-05T22:47:20.181Z,26.93
2018-11-05T22:49:48.370Z,26.00
2018-11-05T22:52:16.577Z,25.90
2018-11-05T22:54:44.765Z,29.67
2018-11-05T22:57:12.966Z,32.37
2018-11-05T22:59:41.153Z,73.93
2018-11-05T23:02:09.353Z,38.67
2018-11-05T23:04:38.079Z,40.67
2018-11-05T23:07:06.297Z,50.10
2018-11-05T23:09:34.490Z,56.13
2018-11-05T23:12:02.692Z,41.83
2018-11-05T23:14:30.883Z,91.10
2018-11-05T23:16:59.270Z,88.13
2018-11-05T23:19:27.470Z,131.40
2018-11-05T23:21:55.673Z,45.70
2018-11-05T23:24:23.893Z,44.67
2018-11-05T23:26:52.098Z,30.77
2018-11-05T23:29:20.291Z,39.70
2018-11-05T23:31:48.507Z,46.50
2018-11-05T23:34:18.166Z,72.17
2018-11-05T23:36:48.727Z,57.73
2018-11-05T23:39:16.906Z,49.60
2018-11-05T23:41:45.114Z,34.80
2018-11-05T23:44:13.362Z,36.33
2018-11-05T23:46:41.517Z,36.20
2018-11-05T23:49:09.710Z,36.40
2018-11-05T23:51:37.934Z,62.20
2018-11-05T23:54:06.359Z,31.00
2018-11-05T23:56:34.578Z,44.33
2018-11-05T23:59:02.843Z,30.10
